createdAt,value
2022-07-25T00:01:00.461Z,26.16
2022-07-25T00:03:04.640Z,26.18
2022-07-25T00:05:08.806Z,26.04
2022-07-25T00:07:12.361Z,26.10
2022-07-25T00:09:16.183Z,26.09
2022-07-25T00:11:19.807Z,26.06
2022-07-25T00:13:23.479Z,26.05
2022-07-25T00:15:28.505Z,25.99
2022-07-25T00:17:32.011Z,26.01
2022-07-25T00:19:35.463Z,25.91
2022-07-25T00:21:38.945Z,25.95
2022-07-25T00:23:42.366Z,25.86
2022-07-25T00:25:45.919Z,25.73
2022-07-25T00:27:49.347Z,25.72
2022-07-25T00:29:52.803Z,25.76
2022-07-25T00:31:57.577Z,25.74
2022-07-25T00:34:01.537Z,25.71
2022-07-25T00:36:05.657Z,25.72
2022-07-25T00:38:09.909Z,25.70
2022-07-25T00:40:14.157Z,25.72
2022-07-25T00:42:17.825Z,25.69
2022-07-25T00:44:26.051Z,25.64
2022-07-25T00:46:29.581Z,25.57
2022-07-25T00:48:36.324Z,25.59
2022-07-25T00:50:39.792Z,25.57
2022-07-25T00:52:43.280Z,25.58
2022-07-25T00:54:47.485Z,25.60
2022-07-25T00:56:51.949Z,25.46
2022-07-25T00:58:55.837Z,25.24
2022-07-25T01:01:00.308Z,25.13
2022-07-25T01:03:05.710Z,25.03
2022-07-25T01:05:11.967Z,24.97
2022-07-25T01:07:16.045Z,24.98
2022-07-25T01:09:21.532Z,25.10
2022-07-25T01:11:25.797Z,25.05
2022-07-25T01:13:29.246Z,25.08
2022-07-25T01:15:33.521Z,25.07
2022-07-25T01:17:37.011Z,24.99
2022-07-25T01:19:40.448Z,24.86
2022-07-25T01:21:45.259Z,24.85
2022-07-25T01:23:48.993Z,24.81
2022-07-25T01:25:52.573Z,24.63
2022-07-25T01:27:57.741Z,24.50
2022-07-25T01:30:02.955Z,24.46
2022-07-25T01:32:06.921Z,24.54
2022-07-25T01:34:10.536Z,24.15
2022-07-25T01:36:13.960Z,24.42
2022-07-25T01:38:19.204Z,24.46
2022-07-25T01:40:22.584Z,24.56
2022-07-25T01:42:26.462Z,24.44
2022-07-25T01:44:29.938Z,24.38
2022-07-25T01:46:33.688Z,24.31
2022-07-25T01:48:37.165Z,24.31
2022-07-25T01:50:40.617Z,24.34
2022-07-25T01:52:44.182Z,24.33
2022-07-25T01:54:49.027Z,24.39
2022-07-25T01:56:52.600Z,24.36
2022-07-25T01:58:56.236Z,24.34
2022-07-25T02:00:59.729Z,24.30
2022-07-25T02:03:26.028Z,24.42
2022-07-25T02:05:29.601Z,24.50
2022-07-25T02:07:33.271Z,24.57
2022-07-25T02:09:36.779Z,24.66
2022-07-25T02:11:42.319Z,24.63
2022-07-25T02:13:45.822Z,24.62
2022-07-25T02:15:49.318Z,24.54
2022-07-25T02:17:52.825Z,24.42
2022-07-25T02:19:56.243Z,24.38
2022-07-25T02:22:00.105Z,24.41
2022-07-25T02:24:04.412Z,24.48
2022-07-25T02:26:08.285Z,24.38
2022-07-25T02:28:13.123Z,24.41
2022-07-25T02:30:16.640Z,24.49
2022-07-25T02:32:20.267Z,24.44
2022-07-25T02:34:23.720Z,24.40
2022-07-25T02:36:27.232Z,24.32
2022-07-25T02:38:30.725Z,24.30
2022-07-25T02:40:34.179Z,24.21
2022-07-25T02:42:38.525Z,24.11
2022-07-25T02:44:43.267Z,24.11
2022-07-25T02:46:47.389Z,24.07
2022-07-25T02:48:50.928Z,23.93
2022-07-25T02:50:54.455Z,23.91
2022-07-25T02:52:57.971Z,24.00
2022-07-25T02:55:04.840Z,24.07
2022-07-25T02:57:12.454Z,24.17
2022-07-25T02:59:15.971Z,24.27
2022-07-25T03:01:20.971Z,24.29
2022-07-25T03:03:24.727Z,24.25
2022-07-25T03:05:29.273Z,24.16
2022-07-25T03:07:32.658Z,24.11
2022-07-25T03:09:36.222Z,24.12
2022-07-25T03:11:39.752Z,24.11
2022-07-25T03:13:43.256Z,24.08
2022-07-25T03:15:46.664Z,23.85
2022-07-25T03:17:51.524Z,23.86
2022-07-25T03:19:56.396Z,24.00
2022-07-25T03:21:59.939Z,23.97
2022-07-25T03:24:03.707Z,24.04
2022-07-25T03:26:07.434Z,24.12
2022-07-25T03:28:11.402Z,24.10
2022-07-25T03:30:15.050Z,24.05
2022-07-25T03:32:19.116Z,23.96
2022-07-25T03:34:23.905Z,23.77
2022-07-25T03:36:27.328Z,23.80
2022-07-25T03:38:30.896Z,23.93
2022-07-25T03:40:34.735Z,23.96
2022-07-25T03:42:38.072Z,24.14
2022-07-25T03:44:41.692Z,23.90
2022-07-25T03:46:45.127Z,23.70
2022-07-25T03:48:49.291Z,23.66
2022-07-25T03:50:54.121Z,23.64
2022-07-25T03:52:57.542Z,23.63
2022-07-25T03:55:01.016Z,23.57
2022-07-25T03:57:05.456Z,23.66
2022-07-25T03:59:11.160Z,23.68
2022-07-25T04:01:14.810Z,23.62
2022-07-25T04:03:18.365Z,23.58
2022-07-25T04:05:21.768Z,23.57
2022-07-25T04:07:26.532Z,23.62
2022-07-25T04:09:32.399Z,23.46
2022-07-25T04:11:38.397Z,23.33
2022-07-25T04:13:42.196Z,23.27
2022-07-25T04:15:46.715Z,23.33
2022-07-25T04:17:50.408Z,23.35
2022-07-25T04:19:53.925Z,23.35
2022-07-25T04:21:58.321Z,23.32
2022-07-25T04:24:03.522Z,23.49
2022-07-25T04:26:07.816Z,23.57
2022-07-25T04:28:11.454Z,23.64
2022-07-25T04:30:24.690Z,23.58
2022-07-25T04:32:31.317Z,23.52
2022-07-25T04:34:35.297Z,23.45
2022-07-25T04:36:38.896Z,23.38
2022-07-25T04:38:42.443Z,23.41
2022-07-25T04:40:47.883Z,23.51
2022-07-25T04:42:51.258Z,23.62
2022-07-25T04:44:54.685Z,23.68
2022-07-25T04:46:58.090Z,23.68
2022-07-25T04:49:01.743Z,23.79
2022-07-25T04:51:05.573Z,23.83
2022-07-25T04:53:09.558Z,23.91
2022-07-25T04:55:13.474Z,23.96
2022-07-25T04:57:18.216Z,23.90
2022-07-25T04:59:22.872Z,23.90
2022-07-25T05:01:26.648Z,23.91
2022-07-25T05:03:30.767Z,23.97
2022-07-25T05:05:34.329Z,23.94
2022-07-25T05:07:38.516Z,23.95
2022-07-25T05:09:41.971Z,23.94
2022-07-25T05:11:49.487Z,24.00
2022-07-25T05:13:56.485Z,24.07
2022-07-25T05:16:00.041Z,24.08
2022-07-25T05:18:03.591Z,24.10
2022-07-25T05:20:09.028Z,23.95
2022-07-25T05:22:12.480Z,24.10
2022-07-25T05:24:15.875Z,24.14
2022-07-25T05:26:19.265Z,24.07
2022-07-25T05:28:22.706Z,24.08
2022-07-25T05:30:27.664Z,24.15
2022-07-25T05:32:31.125Z,24.26
2022-07-25T05:34:34.695Z,24.18
2022-07-25T05:36:38.402Z,24.22
2022-07-25T05:38:41.922Z,24.20
2022-07-25T05:40:46.294Z,24.12
2022-07-25T05:42:49.714Z,24.14
2022-07-25T05:44:53.912Z,24.16
2022-07-25T05:46:58.750Z,24.28
2022-07-25T05:49:02.751Z,24.24
2022-07-25T05:51:06.403Z,24.25
2022-07-25T05:53:10.242Z,24.23
2022-07-25T05:55:13.952Z,24.29
2022-07-25T05:57:17.915Z,24.26
2022-07-25T05:59:21.533Z,24.35
2022-07-25T06:01:25.867Z,24.39
2022-07-25T06:03:30.715Z,24.43
2022-07-25T06:05:34.356Z,24.39
2022-07-25T06:07:37.749Z,24.46
2022-07-25T06:09:43.265Z,24.43
2022-07-25T06:11:48.725Z,24.43
2022-07-25T06:13:58.918Z,24.49
2022-07-25T06:16:02.703Z,24.52
2022-07-25T06:18:06.330Z,24.58
2022-07-25T06:20:12.694Z,24.59
2022-07-25T06:22:16.117Z,24.56
2022-07-25T06:24:19.821Z,24.50
2022-07-25T06:26:24.726Z,24.67
2022-07-25T06:28:28.760Z,24.76
2022-07-25T06:30:32.559Z,24.62
2022-07-25T06:32:36.491Z,24.74
2022-07-25T06:34:40.069Z,24.93
2022-07-25T06:36:44.946Z,24.99
2022-07-25T06:38:48.304Z,25.04
2022-07-25T06:40:52.145Z,25.10
2022-07-25T06:42:55.687Z,25.22
2022-07-25T06:44:59.051Z,25.31
2022-07-25T06:47:02.909Z,25.42
2022-07-25T06:49:06.646Z,25.29
2022-07-25T06:51:11.678Z,25.33
2022-07-25T06:53:17.047Z,25.56
2022-07-25T06:55:20.622Z,25.49
2022-07-25T06:57:24.321Z,25.60
2022-07-25T06:59:28.036Z,25.60
2022-07-25T07:01:31.613Z,25.63
2022-07-25T07:03:38.359Z,25.57
2022-07-25T07:05:42.606Z,25.61
2022-07-25T07:07:47.964Z,25.67
2022-07-25T07:09:53.131Z,25.59
2022-07-25T07:11:56.696Z,25.76
2022-07-25T07:14:00.742Z,25.83
2022-07-25T07:16:05.135Z,25.99
2022-07-25T07:18:12.252Z,26.01
2022-07-25T07:20:15.831Z,26.02
2022-07-25T07:22:19.961Z,26.08
2022-07-25T07:24:25.921Z,26.08
2022-07-25T07:26:30.665Z,26.24
2022-07-25T07:28:34.079Z,26.25
2022-07-25T07:33:04.542Z,26.50
2022-07-25T07:35:08.699Z,26.64
2022-07-25T07:37:12.177Z,26.46
2022-07-25T07:39:16.489Z,26.60
2022-07-25T07:41:20.316Z,26.17
2022-07-25T07:43:29.702Z,26.16
2022-07-25T07:45:34.185Z,26.63
2022-07-25T07:47:38.046Z,26.87
2022-07-25T07:49:41.499Z,26.71
2022-07-25T07:51:44.946Z,26.51
2022-07-25T07:54:06.223Z,26.72
2022-07-25T07:56:09.849Z,27.29
2022-07-25T07:58:15.772Z,27.31
2022-07-25T08:00:21.844Z,27.35
2022-07-25T08:02:25.453Z,27.10
2022-07-25T08:04:29.150Z,27.70
2022-07-25T08:06:32.627Z,27.51
2022-07-25T08:08:36.034Z,27.73
2022-07-25T08:10:41.717Z,27.88
2022-07-25T08:12:45.145Z,27.83
2022-07-25T08:14:48.572Z,28.03
2022-07-25T08:16:53.763Z,27.28
2022-07-25T08:18:57.407Z,28.02
2022-07-25T08:21:02.952Z,28.17
2022-07-25T08:23:07.324Z,28.13
2022-07-25T08:25:13.923Z,28.10
2022-07-25T08:27:18.072Z,28.20
2022-07-25T08:29:26.317Z,28.17
2022-07-25T08:31:31.658Z,27.36
2022-07-25T08:33:36.500Z,28.23
2022-07-25T08:35:41.727Z,28.26
2022-07-25T08:37:45.326Z,28.04
2022-07-25T08:39:49.228Z,28.18
2022-07-25T08:41:53.246Z,28.03
2022-07-25T08:43:57.019Z,28.04
2022-07-25T08:46:02.961Z,28.06
2022-07-25T08:48:07.077Z,27.68
2022-07-25T08:50:15.078Z,28.04
2022-07-25T08:52:19.454Z,27.22
2022-07-25T08:54:24.290Z,28.09
2022-07-25T08:56:27.954Z,28.02
2022-07-25T08:58:31.416Z,27.97
2022-07-25T09:00:34.926Z,28.13
2022-07-25T09:02:38.873Z,28.00
2022-07-25T09:04:43.373Z,27.65
2022-07-25T09:06:52.562Z,28.00
2022-07-25T09:08:58.675Z,27.81
2022-07-25T09:11:02.187Z,28.05
2022-07-25T09:13:10.573Z,27.92
2022-07-25T09:15:24.836Z,28.14
2022-07-25T09:17:29.584Z,28.09
2022-07-25T09:19:33.196Z,28.21
2022-07-25T09:21:36.709Z,28.39
2022-07-25T09:23:42.761Z,28.55
2022-07-25T09:25:46.270Z,28.51
2022-07-25T09:27:49.768Z,28.59
2022-07-25T09:29:53.206Z,28.59
2022-07-25T09:31:57.720Z,28.63
2022-07-25T09:34:03.395Z,28.35
2022-07-25T09:36:12.320Z,28.75
2022-07-25T09:38:17.274Z,28.63
2022-07-25T09:40:22.622Z,28.83
2022-07-25T09:42:28.996Z,28.71
2022-07-25T09:44:32.552Z,27.75
2022-07-25T09:46:36.168Z,28.32
2022-07-25T09:48:41.937Z,28.12
2022-07-25T09:50:45.682Z,28.29
2022-07-25T09:52:49.410Z,28.35
2022-07-25T09:54:54.699Z,28.37
2022-07-25T09:56:59.716Z,28.02
2022-07-25T09:59:04.010Z,28.05
2022-07-25T10:01:08.744Z,28.01
2022-07-25T10:03:30.486Z,27.73
2022-07-25T10:05:45.441Z,27.51
2022-07-25T10:07:52.080Z,27.08
2022-07-25T10:09:57.084Z,27.18
2022-07-25T10:12:10.507Z,27.21
2022-07-25T10:14:14.262Z,27.07
2022-07-25T10:16:19.373Z,27.05
2022-07-25T10:18:25.101Z,26.92
2022-07-25T10:20:29.704Z,26.46
2022-07-25T10:22:55.963Z,25.91
2022-07-25T10:25:11.310Z,26.85
2022-07-25T10:27:23.392Z,26.76
2022-07-25T10:29:35.204Z,26.76
2022-07-25T10:31:49.448Z,26.44
2022-07-25T10:33:56.845Z,26.62
2022-07-25T10:36:07.877Z,25.79
2022-07-25T10:38:12.165Z,26.39
2022-07-25T10:40:27.291Z,26.61
2022-07-25T10:42:35.312Z,26.68
2022-07-25T10:44:43.352Z,26.83
2022-07-25T10:46:47.271Z,26.99
2022-07-25T10:49:00.336Z,27.11
2022-07-25T10:51:07.039Z,27.43
2022-07-25T10:53:10.620Z,27.64
2022-07-25T10:55:23.931Z,27.45
2022-07-25T10:57:31.964Z,27.54
2022-07-25T10:59:38.423Z,27.49
2022-07-25T11:01:45.007Z,27.44
2022-07-25T11:03:48.910Z,27.37
2022-07-25T11:05:54.612Z,27.76
2022-07-25T11:08:20.671Z,27.91
2022-07-25T11:10:27.405Z,27.55
2022-07-25T11:12:31.243Z,27.94
2022-07-25T11:14:37.803Z,27.95
2022-07-25T11:16:41.374Z,27.75
2022-07-25T11:18:44.969Z,27.59
2022-07-25T11:20:48.465Z,27.66
2022-07-25T11:22:53.902Z,27.71
2022-07-25T11:24:57.796Z,27.70
2022-07-25T11:27:01.540Z,27.81
2022-07-25T11:29:05.402Z,27.72
2022-07-25T11:31:11.926Z,27.86
2022-07-25T11:33:17.727Z,27.89
2022-07-25T11:35:25.224Z,28.06
2022-07-25T11:37:28.865Z,28.14
2022-07-25T11:39:33.820Z,28.05
2022-07-25T11:41:37.543Z,27.35
2022-07-25T11:43:49.305Z,27.81
2022-07-25T11:46:00.753Z,27.59
2022-07-25T11:48:09.943Z,27.73
2022-07-25T11:50:15.728Z,27.58
2022-07-25T11:52:21.463Z,27.97
2022-07-25T11:54:25.126Z,28.15
2022-07-25T11:56:44.179Z,28.07
2022-07-25T11:59:00.818Z,28.27
2022-07-25T12:01:13.424Z,28.45
2022-07-25T12:03:20.937Z,28.42
2022-07-25T12:05:33.394Z,28.17
2022-07-25T12:07:39.014Z,28.18
2022-07-25T12:09:42.497Z,28.01
2022-07-25T12:11:47.174Z,28.33
2022-07-25T12:13:51.393Z,28.51
2022-07-25T12:15:56.649Z,28.51
2022-07-25T12:18:01.897Z,28.57
2022-07-25T12:20:14.433Z,28.62
2022-07-25T12:22:17.881Z,28.76
2022-07-25T12:24:21.331Z,28.71
2022-07-25T12:26:24.807Z,28.72
2022-07-25T12:28:29.059Z,28.93
2022-07-25T12:30:34.034Z,29.03
2022-07-25T12:32:38.191Z,28.86
2022-07-25T12:34:42.615Z,28.80
2022-07-25T12:36:47.373Z,28.70
2022-07-25T12:38:50.834Z,28.69
2022-07-25T12:40:54.574Z,28.78
2022-07-25T12:42:58.902Z,28.71
2022-07-25T12:45:02.608Z,28.82
2022-07-25T12:47:06.083Z,29.06
2022-07-25T12:49:10.493Z,29.28
2022-07-25T12:51:14.237Z,29.72
2022-07-25T12:53:19.072Z,30.02
2022-07-25T12:55:22.703Z,29.78
2022-07-25T12:57:26.334Z,29.45
2022-07-25T12:59:29.834Z,29.20
2022-07-25T13:01:33.274Z,28.96
2022-07-25T13:03:36.834Z,28.74
2022-07-25T13:05:40.912Z,28.38
2022-07-25T13:07:44.916Z,28.36
2022-07-25T13:09:49.824Z,28.37
2022-07-25T13:11:53.532Z,28.32
2022-07-25T13:13:56.999Z,28.17
2022-07-25T13:16:00.847Z,28.37
2022-07-25T13:18:04.897Z,28.32
2022-07-25T13:20:09.903Z,28.35
2022-07-25T13:22:13.450Z,28.18
2022-07-25T13:24:16.899Z,28.29
2022-07-25T13:26:21.769Z,28.28
2022-07-25T13:28:25.696Z,28.14
2022-07-25T13:30:29.122Z,28.28
2022-07-25T13:32:32.763Z,28.49
2022-07-25T13:34:36.212Z,28.44
2022-07-25T13:36:40.549Z,28.54
2022-07-25T13:38:44.786Z,28.82
2022-07-25T13:40:48.226Z,29.26
2022-07-25T13:42:53.000Z,29.15
2022-07-25T13:44:56.437Z,29.12
2022-07-25T13:46:59.952Z,29.22
2022-07-25T13:49:03.928Z,29.05
2022-07-25T13:51:07.762Z,29.37
2022-07-25T13:53:11.327Z,29.74
2022-07-25T13:55:14.764Z,29.47
2022-07-25T13:57:19.417Z,29.24
2022-07-25T13:59:24.557Z,29.04
2022-07-25T14:01:28.733Z,28.88
2022-07-25T14:03:32.514Z,28.72
2022-07-25T14:05:36.369Z,28.91
2022-07-25T14:07:40.271Z,28.85
2022-07-25T14:09:43.949Z,28.85
2022-07-25T14:11:47.739Z,28.74
2022-07-25T14:13:51.373Z,28.78
2022-07-25T14:15:56.482Z,28.74
2022-07-25T14:18:00.232Z,29.16
2022-07-25T14:20:04.438Z,29.12
2022-07-25T14:22:08.216Z,29.29
2022-07-25T14:24:11.858Z,29.10
2022-07-25T14:26:15.419Z,28.87
2022-07-25T14:28:18.853Z,28.60
2022-07-25T14:30:22.202Z,28.45
2022-07-25T14:32:27.511Z,28.36
2022-07-25T14:34:30.896Z,28.25
2022-07-25T14:36:34.697Z,28.11
2022-07-25T14:38:38.268Z,28.06
2022-07-25T14:40:42.956Z,28.08
2022-07-25T14:42:46.477Z,28.06
2022-07-25T14:44:49.903Z,28.00
2022-07-25T14:46:53.355Z,28.04
2022-07-25T14:48:58.596Z,28.05
2022-07-25T14:51:02.034Z,27.98
2022-07-25T14:53:05.506Z,27.99
2022-07-25T14:55:10.512Z,27.98
2022-07-25T14:57:14.208Z,27.94
2022-07-25T14:59:17.929Z,27.73
2022-07-25T15:01:24.387Z,27.57
2022-07-25T15:03:27.996Z,27.40
2022-07-25T15:05:32.790Z,27.53
2022-07-25T15:07:37.938Z,27.53
2022-07-25T15:09:41.448Z,27.62
2022-07-25T15:11:44.859Z,27.53
2022-07-25T15:13:49.255Z,27.45
2022-07-25T15:15:52.726Z,27.46
2022-07-25T15:17:56.689Z,27.27
2022-07-25T15:20:00.171Z,27.06
2022-07-25T15:22:04.949Z,26.92
2022-07-25T15:24:08.605Z,26.81
2022-07-25T15:26:12.320Z,26.81
2022-07-25T15:28:15.903Z,26.89
2022-07-25T15:30:19.362Z,26.98
2022-07-25T15:32:22.779Z,26.86
2022-07-25T15:34:26.187Z,26.77
2022-07-25T15:36:30.110Z,26.78
2022-07-25T15:38:34.967Z,26.48
2022-07-25T15:40:38.468Z,26.33
2022-07-25T15:42:41.874Z,26.41
2022-07-25T15:44:45.290Z,26.33
2022-07-25T15:46:48.853Z,26.38
2022-07-25T15:48:52.469Z,26.32
2022-07-25T15:50:58.718Z,26.24
2022-07-25T15:53:02.113Z,26.20
2022-07-25T15:55:07.572Z,26.06
2022-07-25T15:57:11.204Z,25.87
2022-07-25T15:59:14.588Z,25.93
2022-07-25T16:01:18.078Z,25.98
2022-07-25T16:03:22.054Z,25.96
2022-07-25T16:05:25.800Z,25.92
2022-07-25T16:07:29.350Z,26.11
2022-07-25T16:09:33.034Z,26.24
2022-07-25T16:11:38.615Z,26.19
2022-07-25T16:13:42.321Z,26.23
2022-07-25T16:15:45.870Z,26.37
2022-07-25T16:17:50.609Z,26.59
2022-07-25T16:19:54.084Z,26.49
2022-07-25T16:21:58.098Z,26.19
2022-07-25T16:24:01.549Z,26.18
2022-07-25T16:26:05.140Z,26.62
2022-07-25T16:28:11.480Z,27.03
2022-07-25T16:30:15.614Z,27.35
2022-07-25T16:32:19.068Z,27.55
2022-07-25T16:34:27.096Z,27.39
2022-07-25T16:36:32.474Z,27.22
2022-07-25T16:38:35.899Z,27.44
2022-07-25T16:40:39.778Z,27.27
2022-07-25T16:42:43.700Z,26.97
2022-07-25T16:44:49.339Z,27.37
2022-07-25T16:46:53.059Z,27.58
2022-07-25T16:48:56.729Z,27.49
2022-07-25T16:51:00.287Z,27.50
2022-07-25T16:53:03.714Z,27.38
2022-07-25T16:55:07.479Z,27.10
2022-07-25T16:57:10.947Z,26.94
2022-07-25T16:59:14.467Z,26.63
2022-07-25T17:01:19.796Z,26.47
2022-07-25T17:03:23.293Z,26.46
2022-07-25T17:05:26.758Z,26.21
2022-07-25T17:07:30.248Z,26.01
2022-07-25T17:09:33.698Z,25.94
2022-07-25T17:11:37.435Z,25.90
2022-07-25T17:13:40.850Z,25.73
2022-07-25T17:15:45.546Z,25.88
2022-07-25T17:17:53.115Z,25.84
2022-07-25T17:19:59.909Z,25.75
2022-07-25T17:22:03.572Z,25.62
2022-07-25T17:24:07.907Z,25.66
2022-07-25T17:26:11.241Z,25.83
2022-07-25T17:28:14.791Z,25.81
2022-07-25T17:30:18.171Z,26.00
2022-07-25T17:32:25.034Z,26.16
2022-07-25T17:34:32.838Z,26.47
2022-07-25T17:36:36.629Z,26.45
2022-07-25T17:38:40.099Z,26.47
2022-07-25T17:40:43.481Z,26.65
2022-07-25T17:42:47.762Z,26.56
2022-07-25T17:44:51.824Z,26.86
2022-07-25T17:46:56.063Z,26.65
2022-07-25T17:49:00.058Z,27.03
2022-07-25T17:51:06.079Z,26.88
2022-07-25T17:53:09.436Z,26.57
2022-07-25T17:55:13.576Z,26.20
2022-07-25T17:57:17.083Z,26.17
2022-07-25T17:59:20.544Z,26.22
2022-07-25T18:01:24.042Z,26.41
2022-07-25T18:03:27.460Z,26.50
2022-07-25T18:05:32.468Z,26.28
2022-07-25T18:07:40.639Z,26.11
2022-07-25T18:09:44.111Z,26.03
2022-07-25T18:11:47.733Z,25.96
2022-07-25T18:13:51.136Z,25.85
2022-07-25T18:15:54.562Z,25.82
2022-07-25T18:17:58.093Z,25.81
2022-07-25T18:20:04.220Z,26.03
2022-07-25T18:22:07.703Z,26.21
2022-07-25T18:24:12.556Z,26.04
2022-07-25T18:26:16.370Z,25.88
2022-07-25T18:28:20.226Z,25.87
2022-07-25T18:30:27.296Z,25.87
2022-07-25T18:32:32.862Z,25.78
2022-07-25T18:34:36.608Z,25.82
2022-07-25T18:36:42.011Z,25.65
2022-07-25T18:38:45.488Z,25.55
2022-07-25T18:41:06.484Z,25.62
2022-07-25T18:43:13.677Z,25.72
2022-07-25T18:45:17.170Z,25.60
2022-07-25T18:47:25.434Z,25.53
2022-07-25T18:49:29.424Z,25.59
2022-07-25T18:51:32.974Z,25.50
2022-07-25T18:53:37.296Z,25.45
2022-07-25T18:55:42.065Z,25.30
2022-07-25T18:57:46.939Z,25.33
2022-07-25T18:59:50.332Z,25.30
2022-07-25T19:01:54.771Z,25.28
2022-07-25T19:03:58.233Z,25.18
2022-07-25T19:06:03.685Z,24.91
2022-07-25T19:08:07.652Z,24.92
2022-07-25T19:10:11.842Z,24.82
2022-07-25T19:12:15.175Z,24.73
2022-07-25T19:14:20.032Z,24.82
2022-07-25T19:16:23.485Z,24.88
2022-07-25T19:18:29.533Z,24.80
2022-07-25T19:20:33.348Z,24.79
2022-07-25T19:22:36.703Z,24.66
2022-07-25T19:24:40.174Z,24.73
2022-07-25T19:26:48.367Z,24.74
2022-07-25T19:28:52.254Z,24.75
2022-07-25T19:30:57.467Z,24.56
2022-07-25T19:33:00.926Z,24.47
2022-07-25T19:35:04.670Z,24.35
2022-07-25T19:37:08.099Z,24.47
2022-07-25T19:39:12.422Z,24.49
2022-07-25T19:41:16.022Z,24.48
2022-07-25T19:43:19.660Z,24.53
2022-07-25T19:45:23.281Z,24.43
2022-07-25T19:47:28.322Z,24.32
2022-07-25T19:49:32.464Z,24.30
2022-07-25T19:51:37.696Z,24.31
2022-07-25T19:53:41.119Z,24.14
2022-07-25T19:55:44.661Z,24.25
2022-07-25T19:57:48.060Z,24.26
2022-07-25T19:59:51.604Z,24.40
2022-07-25T20:01:55.737Z,24.42
2022-07-25T20:04:00.611Z,24.41
2022-07-25T20:06:07.986Z,24.42
2022-07-25T20:08:12.289Z,24.42
2022-07-25T20:10:17.771Z,24.39
2022-07-25T20:12:21.740Z,24.35
2022-07-25T20:14:25.172Z,24.28
2022-07-25T20:16:29.048Z,24.31
2022-07-25T20:18:33.133Z,24.35
2022-07-25T20:20:38.180Z,24.47
2022-07-25T20:22:41.978Z,24.47
2022-07-25T20:24:46.347Z,24.51
2022-07-25T20:26:49.911Z,24.53
2022-07-25T20:28:53.783Z,24.29
2022-07-25T20:30:58.115Z,24.04
2022-07-25T20:33:05.389Z,24.03
2022-07-25T20:35:13.229Z,24.06
2022-07-25T20:37:18.053Z,23.99
2022-07-25T20:39:21.770Z,24.00
2022-07-25T20:41:25.333Z,24.03
2022-07-25T20:43:29.884Z,23.96
2022-07-25T20:45:33.543Z,23.94
2022-07-25T20:47:37.289Z,23.93
2022-07-25T20:49:40.851Z,23.96
2022-07-25T20:51:44.498Z,23.92
2022-07-25T20:53:53.233Z,24.06
2022-07-25T20:55:57.057Z,24.09
2022-07-25T20:58:00.845Z,24.15
2022-07-25T21:00:05.784Z,24.17
2022-07-25T21:02:10.741Z,23.99
2022-07-25T21:04:16.548Z,23.85
2022-07-25T21:06:20.100Z,23.90
2022-07-25T21:08:30.634Z,23.71
2022-07-25T21:10:35.519Z,23.83
2022-07-25T21:12:39.415Z,23.84
2022-07-25T21:14:42.957Z,23.95
2022-07-25T21:16:46.601Z,23.85
2022-07-25T21:18:50.204Z,24.02
2022-07-25T21:20:54.222Z,23.98
2022-07-25T21:22:57.825Z,23.86
2022-07-25T21:25:01.514Z,23.89
2022-07-25T21:27:06.541Z,23.94
2022-07-25T21:29:10.625Z,23.93
2022-07-25T21:31:14.813Z,23.96
2022-07-25T21:33:18.243Z,23.76
2022-07-25T21:35:21.775Z,23.66
2022-07-25T21:37:25.297Z,23.59
2022-07-25T21:39:28.748Z,23.68
2022-07-25T21:41:32.238Z,23.43
2022-07-25T21:43:37.039Z,23.39
2022-07-25T21:45:40.601Z,23.43
2022-07-25T21:47:44.254Z,23.16
2022-07-25T21:50:05.222Z,23.01
2022-07-25T21:52:08.915Z,22.90
2022-07-25T21:54:17.575Z,23.09
2022-07-25T21:56:21.587Z,23.01
2022-07-25T21:58:25.184Z,23.03
2022-07-25T22:00:33.330Z,22.86
2022-07-25T22:02:37.149Z,22.89
2022-07-25T22:04:41.142Z,22.84
2022-07-25T22:06:44.640Z,22.95
2022-07-25T22:08:48.154Z,23.03
2022-07-25T22:10:52.276Z,23.03
2022-07-25T22:12:56.373Z,23.09
2022-07-25T22:14:59.948Z,23.06
2022-07-25T22:17:05.616Z,23.00
2022-07-25T22:19:09.690Z,23.00
2022-07-25T22:21:15.764Z,22.85
2022-07-25T22:23:19.486Z,22.71
2022-07-25T22:25:22.999Z,22.55
2022-07-25T22:27:26.422Z,22.47
2022-07-25T22:29:30.013Z,22.50
2022-07-25T22:31:33.536Z,22.47
2022-07-25T22:33:38.382Z,22.39
2022-07-25T22:35:41.874Z,22.57
2022-07-25T22:37:45.733Z,22.69
2022-07-25T22:39:49.180Z,22.52
2022-07-25T22:41:52.630Z,22.59
2022-07-25T22:43:59.056Z,22.49
2022-07-25T22:46:03.248Z,22.52
2022-07-25T22:48:07.126Z,22.34
2022-07-25T22:50:12.238Z,22.23
2022-07-25T22:52:15.628Z,22.03
2022-07-25T22:54:18.973Z,21.96
2022-07-25T22:56:22.537Z,21.99
2022-07-25T22:58:27.040Z,21.93
2022-07-25T23:00:30.447Z,22.00
2022-07-25T23:02:33.946Z,21.94
2022-07-25T23:04:38.371Z,22.15
2022-07-25T23:06:43.592Z,22.10
2022-07-25T23:08:47.583Z,22.08
2022-07-25T23:10:51.124Z,22.09
2022-07-25T23:12:54.594Z,22.00
2022-07-25T23:14:57.987Z,22.07
2022-07-25T23:17:20.068Z,22.13
2022-07-25T23:19:23.552Z,22.04
2022-07-25T23:21:27.434Z,22.01
2022-07-25T23:23:32.408Z,22.00
2022-07-25T23:25:35.990Z,22.05
2022-07-25T23:27:40.031Z,21.97
2022-07-25T23:29:43.702Z,21.71
2022-07-25T23:31:47.113Z,21.68
2022-07-25T23:33:50.563Z,21.63
2022-07-25T23:35:54.127Z,21.62
2022-07-25T23:37:57.631Z,21.68
2022-07-25T23:40:02.511Z,21.75
2022-07-25T23:42:06.055Z,21.77
2022-07-25T23:44:09.474Z,21.57
2022-07-25T23:46:15.627Z,21.67
2022-07-25T23:48:21.614Z,21.60
2022-07-25T23:50:25.192Z,21.54
2022-07-25T23:52:28.831Z,21.47
2022-07-25T23:54:34.788Z,21.51
2022-07-25T23:56:39.927Z,21.56
2022-07-25T23:58:43.312Z,21.52
